createdAt,value
2019-01-06T00:00:33.264Z,84.92
2019-01-06T00:03:23.179Z,84.55
2019-01-06T00:06:03.896Z,84.75
2019-01-06T00:09:06.066Z,84.80
2019-01-06T00:11:57.110Z,85.46
2019-01-06T00:14:58.892Z,85.65
2019-01-06T00:17:45.862Z,85.80
2019-01-06T00:20:30.231Z,85.93
2019-01-06T00:23:27.400Z,84.72
2019-01-06T00:26:10.413Z,83.12
2019-01-06T00:28:55.786Z,84.79
2019-01-06T00:31:34.721Z,83.85
2019-01-06T00:34:20.300Z,83.83
2019-01-06T00:37:14.763Z,84.70
2019-01-06T00:39:52.458Z,85.12
2019-01-06T00:42:38.556Z,85.16
2019-01-06T00:45:31.634Z,85.59
2019-01-06T00:48:12.995Z,85.24
2019-01-06T00:50:49.158Z,85.30
2019-01-06T00:53:35.329Z,86.15
2019-01-06T00:56:23.556Z,86.57
2019-01-06T00:59:05.087Z,87.11
2019-01-06T01:01:52.100Z,87.53
2019-01-06T01:04:43.729Z,87.44
2019-01-06T01:07:33.217Z,87.54
2019-01-06T01:10:30.151Z,87.47
2019-01-06T01:13:13.582Z,87.27
2019-01-06T01:15:55.786Z,86.37
2019-01-06T01:18:38.934Z,86.41
2019-01-06T01:21:24.289Z,85.40
2019-01-06T01:24:14.485Z,85.25
2019-01-06T01:27:07.335Z,85.80
2019-01-06T01:29:58.058Z,85.74
2019-01-06T01:32:47.813Z,85.37
2019-01-06T01:35:32.609Z,85.54
2019-01-06T01:38:18.163Z,84.82
2019-01-06T01:41:04.590Z,85.07
2019-01-06T01:43:45.333Z,85.22
2019-01-06T01:46:44.441Z,85.41
2019-01-06T01:49:30.017Z,85.41
2019-01-06T01:52:24.864Z,84.76
2019-01-06T01:55:17.884Z,84.69
2019-01-06T01:58:03.535Z,84.44
2019-01-06T02:00:46.785Z,83.92
2019-01-06T02:03:32.210Z,83.79
2019-01-06T02:06:16.620Z,83.17
2019-01-06T02:09:07.219Z,83.18
2019-01-06T02:11:49.013Z,83.22
2019-01-06T02:14:35.209Z,82.52
2019-01-06T02:17:34.003Z,79.72
2019-01-06T02:20:20.683Z,78.80
2019-01-06T02:23:08.178Z,79.30
2019-01-06T02:25:51.672Z,79.73
2019-01-06T02:28:37.476Z,78.86
2019-01-06T02:31:23.450Z,78.29
2019-01-06T02:34:19.791Z,78.52
2019-01-06T02:37:09.559Z,78.36
2019-01-06T02:39:52.418Z,77.85
2019-01-06T02:42:38.087Z,78.46
2019-01-06T02:45:27.263Z,78.36
2019-01-06T02:48:15.429Z,79.13
2019-01-06T02:51:09.768Z,78.19
2019-01-06T02:53:55.453Z,77.88
2019-01-06T02:56:41.138Z,78.02
2019-01-06T02:59:26.929Z,78.51
2019-01-06T03:02:12.631Z,77.99
2019-01-06T03:04:58.403Z,77.60
2019-01-06T03:07:56.559Z,78.56
2019-01-06T03:10:39.830Z,77.18
2019-01-06T03:13:25.649Z,77.91
2019-01-06T03:16:03.187Z,79.16
2019-01-06T03:18:52.986Z,78.67
2019-01-06T03:21:42.972Z,78.37
2019-01-06T03:24:28.641Z,77.40
2019-01-06T03:27:05.938Z,78.25
2019-01-06T03:29:47.229Z,78.47
2019-01-06T03:32:25.038Z,77.93
2019-01-06T03:35:04.146Z,78.01
2019-01-06T03:37:49.592Z,78.39
2019-01-06T03:40:35.346Z,78.12
2019-01-06T03:43:20.792Z,79.02
2019-01-06T03:46:07.807Z,78.92
2019-01-06T03:48:51.441Z,79.38
2019-01-06T03:51:37.261Z,79.61
2019-01-06T03:54:23.938Z,79.52
2019-01-06T03:57:05.325Z,79.75
2019-01-06T03:59:55.313Z,79.85
2019-01-06T04:02:39.063Z,79.77
2019-01-06T04:05:24.749Z,80.87
2019-01-06T04:08:14.610Z,79.69
2019-01-06T04:11:04.421Z,80.46
2019-01-06T04:13:46.433Z,80.14
2019-01-06T04:16:35.371Z,81.25
2019-01-06T04:19:29.539Z,81.12
2019-01-06T04:25:19.840Z,81.73
2019-01-06T04:28:13.047Z,81.28
2019-01-06T04:31:15.095Z,81.20
2019-01-06T04:34:01.082Z,81.30
2019-01-06T04:37:00.177Z,81.81
2019-01-06T04:39:50.776Z,81.96
2019-01-06T04:42:36.673Z,81.44
2019-01-06T04:45:16.105Z,81.08
2019-01-06T04:48:18.171Z,81.43
2019-01-06T04:50:58.649Z,82.60
2019-01-06T04:53:48.927Z,82.26
2019-01-06T04:56:38.829Z,82.15
2019-01-06T04:59:24.363Z,82.78
2019-01-06T05:02:10.302Z,83.39
2019-01-06T05:05:03.139Z,82.75
2019-01-06T05:07:55.379Z,83.03
2019-01-06T05:10:52.137Z,83.18
2019-01-06T05:13:38.152Z,83.49
2019-01-06T05:16:24.206Z,83.52
2019-01-06T05:19:17.128Z,83.34
2019-01-06T05:22:07.349Z,83.67
2019-01-06T05:24:53.042Z,84.10
2019-01-06T05:27:32.100Z,83.96
2019-01-06T05:30:17.860Z,84.00
2019-01-06T05:33:07.942Z,83.85
2019-01-06T05:35:56.845Z,84.17
2019-01-06T05:38:49.044Z,83.94
2019-01-06T05:41:41.691Z,84.35
2019-01-06T05:44:30.859Z,84.28
2019-01-06T05:47:23.720Z,83.66
2019-01-06T05:50:17.685Z,84.09
2019-01-06T05:53:10.129Z,83.78
2019-01-06T05:56:15.682Z,83.75
2019-01-06T05:58:56.485Z,83.36
2019-01-06T06:01:45.037Z,83.71
2019-01-06T06:04:46.840Z,84.54
2019-01-06T06:07:42.279Z,84.12
2019-01-06T06:10:19.984Z,84.14
2019-01-06T06:13:12.977Z,84.21
2019-01-06T06:16:03.062Z,84.28
2019-01-06T06:18:46.047Z,84.03
2019-01-06T06:21:33.008Z,83.84
2019-01-06T06:24:18.951Z,84.68
2019-01-06T06:27:11.779Z,84.10
2019-01-06T06:30:01.589Z,83.78
2019-01-06T06:32:48.602Z,84.13
2019-01-06T06:35:42.827Z,83.69
2019-01-06T06:38:21.852Z,83.64
2019-01-06T06:40:59.227Z,83.79
2019-01-06T06:43:44.791Z,83.30
2019-01-06T06:46:33.238Z,83.85
2019-01-06T06:49:34.524Z,83.36
2019-01-06T06:52:30.645Z,83.99
2019-01-06T06:55:16.250Z,84.07
2019-01-06T06:58:12.433Z,83.75
2019-01-06T07:00:57.782Z,83.64
2019-01-06T07:03:43.309Z,83.86
2019-01-06T07:06:45.387Z,83.87
2019-01-06T07:09:50.274Z,83.79
2019-01-06T07:12:43.159Z,84.07
2019-01-06T07:15:29.043Z,83.64
2019-01-06T07:18:14.732Z,84.10
2019-01-06T07:21:00.613Z,84.45
2019-01-06T07:23:46.021Z,83.89
2019-01-06T07:26:32.717Z,84.53
2019-01-06T07:29:18.490Z,84.06
2019-01-06T07:32:17.062Z,84.26
2019-01-06T07:35:03.748Z,84.25
2019-01-06T07:37:49.331Z,84.32
2019-01-06T07:40:51.852Z,84.02
2019-01-06T07:43:51.458Z,84.47
2019-01-06T07:46:34.510Z,83.67
2019-01-06T07:49:20.067Z,83.29
2019-01-06T07:52:05.960Z,83.70
2019-01-06T07:54:58.627Z,84.35
2019-01-06T07:57:43.366Z,84.23
2019-01-06T08:00:35.011Z,83.57
2019-01-06T08:03:33.079Z,83.40
2019-01-06T08:06:19.769Z,83.69
2019-01-06T08:09:01.598Z,84.37
2019-01-06T08:11:53.844Z,84.01
2019-01-06T08:14:40.567Z,83.77
2019-01-06T08:17:43.197Z,83.58
2019-01-06T08:20:28.992Z,84.22
2019-01-06T08:23:14.572Z,84.31
2019-01-06T08:25:55.646Z,83.45
2019-01-06T08:28:51.596Z,84.22
2019-01-06T08:31:33.470Z,83.71
2019-01-06T08:34:19.272Z,83.00
2019-01-06T08:37:08.923Z,83.26
2019-01-06T08:40:00.087Z,82.07
2019-01-06T08:42:47.265Z,82.53
2019-01-06T08:45:34.322Z,81.88
2019-01-06T08:48:33.484Z,82.06
2019-01-06T08:51:21.153Z,81.18
2019-01-06T08:54:17.477Z,81.43
2019-01-06T08:57:04.175Z,81.77
2019-01-06T08:59:51.484Z,81.45
2019-01-06T09:02:37.579Z,80.81
2019-01-06T09:05:19.062Z,80.85
2019-01-06T09:08:00.755Z,80.72
2019-01-06T09:10:38.814Z,81.11
2019-01-06T09:13:16.772Z,81.34
2019-01-06T09:16:02.276Z,81.59
2019-01-06T09:18:52.346Z,81.82
2019-01-06T09:21:48.668Z,81.68
2019-01-06T09:24:36.613Z,80.38
2019-01-06T09:27:23.627Z,80.90
2019-01-06T09:30:17.909Z,80.59
2019-01-06T09:33:10.661Z,81.39
2019-01-06T09:36:16.318Z,81.89
2019-01-06T09:39:02.071Z,80.49
2019-01-06T09:42:07.231Z,79.99
2019-01-06T09:44:50.572Z,78.52
2019-01-06T09:47:49.606Z,78.59
2019-01-06T09:50:35.360Z,79.27
2019-01-06T09:53:27.114Z,79.96
2019-01-06T09:56:23.096Z,79.60
2019-01-06T09:59:08.480Z,80.05
2019-01-06T10:01:52.883Z,80.91
2019-01-06T10:04:45.899Z,81.61
2019-01-06T10:07:31.582Z,80.90
2019-01-06T10:10:24.285Z,80.76
2019-01-06T10:13:12.178Z,80.81
2019-01-06T10:15:57.687Z,80.06
2019-01-06T10:18:43.648Z,80.03
2019-01-06T10:21:42.469Z,79.74
2019-01-06T10:24:31.443Z,78.55
2019-01-06T10:27:17.190Z,78.21
2019-01-06T10:30:10.595Z,75.87
2019-01-06T10:32:57.569Z,75.55
2019-01-06T10:35:43.460Z,74.84
2019-01-06T10:38:45.328Z,71.83
2019-01-06T10:41:31.929Z,71.73
2019-01-06T10:44:30.698Z,71.09
2019-01-06T10:47:16.819Z,70.83
2019-01-06T10:50:02.399Z,70.77
2019-01-06T10:52:48.083Z,71.63
2019-01-06T10:55:33.977Z,71.49
2019-01-06T10:58:19.679Z,69.99
2019-01-06T11:01:09.605Z,69.43
2019-01-06T11:03:58.272Z,69.96
2019-01-06T11:06:51.558Z,70.22
2019-01-06T11:09:37.453Z,70.39
2019-01-06T11:12:23.341Z,70.22
2019-01-06T11:15:03.802Z,70.81
2019-01-06T11:17:49.825Z,71.28
2019-01-06T11:20:31.588Z,69.99
2019-01-06T11:23:19.019Z,69.91
2019-01-06T11:26:10.738Z,68.21
2019-01-06T11:29:02.497Z,68.54
2019-01-06T11:31:47.651Z,68.05
2019-01-06T11:34:37.094Z,65.69
2019-01-06T11:37:22.505Z,65.76
2019-01-06T11:40:18.848Z,65.07
2019-01-06T11:43:20.469Z,65.81
2019-01-06T11:46:03.849Z,65.39
2019-01-06T11:48:49.481Z,63.75
2019-01-06T11:51:42.766Z,64.39
2019-01-06T11:54:28.322Z,64.91
2019-01-06T11:57:13.903Z,63.99
2019-01-06T11:59:56.132Z,64.27
2019-01-06T12:02:39.136Z,63.44
2019-01-06T12:05:31.903Z,62.55
2019-01-06T12:08:14.314Z,62.48
2019-01-06T12:11:11.160Z,62.35
2019-01-06T12:13:56.230Z,62.91
2019-01-06T12:16:42.835Z,63.65
2019-01-06T12:19:33.711Z,63.14
2019-01-06T12:22:23.660Z,63.72
2019-01-06T12:25:09.188Z,64.23
2019-01-06T12:27:52.537Z,65.23
2019-01-06T12:30:31.510Z,63.50
2019-01-06T12:33:22.007Z,63.68
2019-01-06T12:36:08.084Z,63.73
2019-01-06T12:38:55.682Z,65.80
2019-01-06T12:41:41.490Z,65.73
2019-01-06T12:44:31.156Z,66.79
2019-01-06T12:47:23.838Z,68.24
2019-01-06T12:50:00.511Z,66.76
2019-01-06T12:52:46.162Z,68.78
2019-01-06T12:55:28.065Z,66.86
2019-01-06T12:58:26.883Z,68.17
2019-01-06T13:01:12.153Z,69.19
2019-01-06T13:04:08.465Z,68.84
2019-01-06T13:07:05.227Z,68.33
2019-01-06T13:09:50.995Z,69.35
2019-01-06T13:12:36.679Z,69.05
2019-01-06T13:15:22.570Z,68.91
2019-01-06T13:18:22.590Z,70.33
2019-01-06T13:21:13.598Z,69.34
2019-01-06T13:23:56.932Z,69.83
2019-01-06T13:26:55.929Z,69.05
2019-01-06T13:29:58.303Z,69.09
2019-01-06T13:32:43.472Z,68.85
2019-01-06T13:35:28.888Z,70.66
2019-01-06T13:38:13.781Z,70.44
2019-01-06T13:41:02.847Z,70.73
2019-01-06T13:43:47.660Z,70.05
2019-01-06T13:46:46.578Z,72.43
2019-01-06T13:49:39.191Z,72.21
2019-01-06T13:52:35.222Z,72.66
2019-01-06T13:55:22.242Z,74.64
2019-01-06T13:58:07.576Z,76.74
2019-01-06T14:01:03.846Z,77.70
2019-01-06T14:03:53.221Z,79.24
2019-01-06T14:06:54.990Z,80.27
2019-01-06T14:09:40.871Z,80.28
2019-01-06T14:12:24.230Z,81.37
2019-01-06T14:15:10.199Z,81.53
2019-01-06T14:17:52.190Z,81.46
2019-01-06T14:20:37.627Z,82.33
2019-01-06T14:23:24.584Z,82.17
2019-01-06T14:26:20.237Z,82.04
2019-01-06T14:29:16.038Z,83.46
2019-01-06T14:32:02.713Z,84.32
2019-01-06T14:34:52.516Z,84.91
2019-01-06T14:37:50.118Z,85.54
2019-01-06T14:40:35.667Z,85.47
2019-01-06T14:43:21.662Z,85.81
2019-01-06T14:46:06.827Z,86.17
2019-01-06T14:49:08.283Z,86.49
2019-01-06T14:51:49.491Z,86.99
2019-01-06T14:54:44.670Z,87.54
2019-01-06T14:57:31.367Z,87.18
2019-01-06T15:00:27.264Z,87.12
2019-01-06T15:03:12.548Z,87.53
2019-01-06T15:05:58.376Z,87.36
2019-01-06T15:08:54.394Z,87.40
2019-01-06T15:11:52.941Z,87.14
2019-01-06T15:14:37.787Z,87.32
2019-01-06T15:17:24.467Z,87.51
2019-01-06T15:20:14.442Z,87.68
2019-01-06T15:23:08.430Z,88.20
2019-01-06T15:25:54.519Z,88.47
2019-01-06T15:28:46.975Z,88.75
2019-01-06T15:31:32.647Z,88.64
2019-01-06T15:34:24.983Z,88.54
2019-01-06T15:37:19.480Z,88.37
2019-01-06T15:40:09.256Z,87.90
2019-01-06T15:42:54.519Z,88.05
2019-01-06T15:45:40.144Z,88.01
2019-01-06T15:48:26.119Z,88.06
2019-01-06T15:51:11.613Z,87.91
2019-01-06T15:53:58.613Z,88.03
2019-01-06T15:56:46.983Z,88.47
2019-01-06T15:59:39.189Z,88.52
2019-01-06T16:02:25.304Z,88.85
2019-01-06T16:05:15.292Z,88.79
2019-01-06T16:08:10.582Z,88.71
2019-01-06T16:11:06.610Z,88.21
2019-01-06T16:13:52.403Z,88.11
2019-01-06T16:16:39.417Z,88.83
2019-01-06T16:19:16.704Z,89.23
2019-01-06T16:22:02.296Z,89.10
2019-01-06T16:24:48.068Z,88.79
2019-01-06T16:27:30.101Z,89.10
2019-01-06T16:30:10.975Z,89.25
2019-01-06T16:32:54.297Z,89.26
2019-01-06T16:35:59.410Z,89.16
2019-01-06T16:38:56.292Z,89.58
2019-01-06T16:41:43.509Z,89.40
2019-01-06T16:44:29.060Z,89.57
2019-01-06T16:47:13.110Z,89.51
2019-01-06T16:49:59.013Z,88.95
2019-01-06T16:52:49.082Z,88.37
2019-01-06T16:55:43.273Z,87.56
2019-01-06T16:58:31.115Z,86.89
2019-01-06T17:01:22.045Z,87.11
2019-01-06T17:04:08.010Z,87.31
2019-01-06T17:06:53.894Z,87.06
2019-01-06T17:09:48.316Z,86.92
2019-01-06T17:12:30.594Z,86.06
2019-01-06T17:15:21.088Z,85.43
2019-01-06T17:18:06.402Z,85.09
2019-01-06T17:20:44.471Z,85.44
2019-01-06T17:23:30.360Z,85.17
2019-01-06T17:26:16.045Z,85.14
2019-01-06T17:29:12.314Z,85.08
2019-01-06T17:32:13.736Z,83.91
2019-01-06T17:34:49.214Z,84.48
2019-01-06T17:37:38.546Z,84.76
2019-01-06T17:40:22.169Z,84.42
2019-01-06T17:43:07.944Z,85.25
2019-01-06T17:46:03.220Z,85.67
2019-01-06T17:48:55.833Z,85.39
2019-01-06T17:51:41.187Z,83.35
2019-01-06T17:54:27.205Z,84.21
2019-01-06T17:57:14.173Z,84.82
2019-01-06T17:59:58.677Z,85.12
2019-01-06T18:02:45.355Z,83.83
2019-01-06T18:05:31.926Z,84.13
2019-01-06T18:08:17.981Z,83.01
2019-01-06T18:11:03.969Z,82.65
2019-01-06T18:13:48.249Z,82.05
2019-01-06T18:16:32.086Z,82.61
2019-01-06T18:19:20.658Z,83.26
2019-01-06T18:22:02.491Z,83.25
2019-01-06T18:24:52.326Z,83.97
2019-01-06T18:27:49.367Z,84.02
2019-01-06T18:30:54.177Z,84.82
2019-01-06T18:33:40.847Z,85.20
2019-01-06T18:36:43.177Z,85.48
2019-01-06T18:39:28.648Z,85.94
2019-01-06T18:42:18.203Z,86.27
2019-01-06T18:45:08.877Z,86.25
2019-01-06T18:47:50.819Z,86.57
2019-01-06T18:50:46.877Z,86.17
2019-01-06T18:53:36.580Z,85.78
2019-01-06T18:56:22.450Z,85.50
2019-01-06T18:59:07.961Z,85.48
2019-01-06T19:01:59.196Z,85.27
2019-01-06T19:04:51.080Z,85.19
2019-01-06T19:07:50.045Z,85.44
2019-01-06T19:10:35.724Z,85.84
2019-01-06T19:13:33.526Z,86.22
2019-01-06T19:16:19.180Z,86.41
2019-01-06T19:19:05.065Z,86.44
2019-01-06T19:21:52.094Z,86.67
2019-01-06T19:24:37.693Z,86.85
2019-01-06T19:27:33.814Z,86.86
2019-01-06T19:30:16.651Z,87.20
2019-01-06T19:33:02.528Z,87.36
2019-01-06T19:35:48.193Z,87.54
2019-01-06T19:38:50.375Z,87.83
2019-01-06T19:41:36.048Z,87.85
2019-01-06T19:44:34.941Z,88.23
2019-01-06T19:47:21.957Z,88.37
2019-01-06T19:50:12.147Z,88.51
2019-01-06T19:53:00.292Z,88.47
2019-01-06T19:56:00.451Z,88.71
2019-01-06T19:58:46.311Z,88.57
2019-01-06T20:01:32.441Z,88.76
2019-01-06T20:04:19.235Z,88.95
2019-01-06T20:07:17.591Z,89.18
2019-01-06T20:10:03.281Z,89.35
2019-01-06T20:12:48.622Z,89.39
2019-01-06T20:15:31.582Z,89.46
2019-01-06T20:18:33.575Z,89.55
2019-01-06T20:21:24.758Z,89.24
2019-01-06T20:24:23.168Z,89.39
2019-01-06T20:27:03.193Z,89.33
2019-01-06T20:30:02.245Z,89.21
2019-01-06T20:32:55.043Z,88.52
2019-01-06T20:35:40.345Z,88.28
2019-01-06T20:38:36.447Z,88.44
2019-01-06T20:41:26.338Z,88.48
2019-01-06T20:44:16.063Z,88.23
2019-01-06T20:47:04.971Z,88.13
2019-01-06T20:49:51.989Z,88.16
2019-01-06T20:52:54.094Z,88.25
2019-01-06T20:55:39.828Z,88.42
2019-01-06T20:58:25.952Z,88.89
2019-01-06T21:01:15.355Z,88.93
2019-01-06T21:03:56.821Z,89.11
2019-01-06T21:06:36.239Z,89.19
2019-01-06T21:09:22.127Z,89.42
2019-01-06T21:12:06.482Z,89.47
2019-01-06T21:14:52.576Z,89.59
2019-01-06T21:17:48.620Z,89.41
2019-01-06T21:20:31.251Z,89.35
2019-01-06T21:23:18.744Z,89.18
2019-01-06T21:26:04.641Z,89.13
2019-01-06T21:28:50.037Z,89.12
2019-01-06T21:31:39.610Z,88.96
2019-01-06T21:34:32.849Z,88.88
2019-01-06T21:37:22.279Z,88.47
2019-01-06T21:40:12.436Z,88.27
2019-01-06T21:43:08.438Z,88.36
2019-01-06T22:00:29.516Z,88.04
2019-01-06T22:03:27.561Z,87.99
2019-01-06T22:06:27.340Z,88.13
2019-01-06T22:09:09.559Z,88.08
2019-01-06T22:11:55.278Z,88.10
2019-01-06T22:14:40.608Z,88.16
2019-01-06T22:17:26.701Z,88.29
2019-01-06T22:20:10.264Z,88.07
2019-01-06T22:22:56.125Z,87.75
2019-01-06T22:25:31.999Z,87.51
2019-01-06T22:28:17.870Z,87.70
2019-01-06T22:31:25.149Z,87.43
2019-01-06T22:34:06.842Z,87.26
2019-01-06T22:36:50.489Z,86.32
2019-01-06T22:39:36.712Z,86.51
2019-01-06T22:42:35.655Z,86.21
2019-01-06T22:45:21.282Z,86.49
2019-01-06T22:48:11.053Z,86.75
2019-01-06T22:51:00.318Z,86.65
2019-01-06T22:53:45.638Z,86.90
2019-01-06T22:56:36.889Z,86.88
2019-01-06T22:59:22.495Z,86.55
2019-01-06T23:02:15.855Z,86.18
2019-01-06T23:04:53.789Z,85.81
2019-01-06T23:07:49.363Z,86.20
2019-01-06T23:10:34.938Z,86.17
2019-01-06T23:13:40.614Z,86.51
2019-01-06T23:16:42.375Z,86.87
2019-01-06T23:19:32.673Z,86.59
2019-01-06T23:22:18.665Z,86.64
2019-01-06T23:25:06.407Z,86.59
2019-01-06T23:27:51.598Z,86.44
2019-01-06T23:30:35.544Z,86.40
2019-01-06T23:33:18.754Z,86.32
2019-01-06T23:36:04.179Z,86.36
2019-01-06T23:38:49.744Z,86.65
2019-01-06T23:41:35.315Z,86.73
2019-01-06T23:44:21.279Z,86.87
2019-01-06T23:47:09.622Z,86.89
2019-01-06T23:50:02.241Z,87.07
2019-01-06T23:52:51.736Z,87.04
2019-01-06T23:55:53.606Z,86.99
2019-01-06T23:58:43.800Z,86.83
